Terminal Aerodrome Forecast
Issued by NWS

Home | Current Version | Previous Version | Text Only | Print | Product List | Glossary On
Versions: 1 2 3 4 5 6 7 8 9 10 11 12 13 14
000
FTUS43 KDLH 060500
TAFHIB
TAF
KHIB 060530Z 0606/0706 14009KT P6SM SCT120
     FM060900 14006KT P6SM BKN025
     FM061100 14007KT P6SM VCSH BKN015 OVC030
     FM061800 13010KT P6SM SCT025 OVC050
     FM070400 13009KT P6SM -SHRA BKN035=

USA.gov is the U.S. government's official web portal to all federal, state and local government web resources and services.